Terminal Aerodrome Forecast
Issued by NWS Caribou, ME

Home | Current Version | Previous Version | Text Only | Print | Product List | Glossary On
Versions: 1 2 3 4 5 6 7 8 9 10 11 12 13 14 15
000
FTUS41 KCAR 261120
TAFCAR
TAF
KCAR 261120Z 2612/2712 19005KT P6SM SCT008 BKN025 OVC040
     FM261700 28006KT P6SM VCSH BKN040
     FM261900 28006KT P6SM VCTS BKN040CB
     FM262200 28006KT P6SM BKN050
     FM270500 VRB03KT P6SM BCFG SCT250=

USA.gov is the U.S. government's official web portal to all federal, state and local government web resources and services.